Time;durP1;ratioP1;P1;durP2;ratioP2;P2;SDS_P1;SDS_P2;PMS_P1;PMS_P2;Temp;Humidity;BMP_temperature;BMP_pressure;BME280_temperature;BME280_humidity;BME280_pressure;Samples;Min_cycle;Max_cycle;Signal;HPM_P1;HPM_P2
2022/08/18 00:01:48;;;;;;;12.75;8.57;;;;;;;19.19;100.00;95175.44;5096782;28;20118;-75
2022/08/18 00:04:15;;;;;;;14.55;8.80;;;;;;;19.18;100.00;95181.09;5089375;28;20051;-75
2022/08/18 00:06:41;;;;;;;13.40;8.57;;;;;;;19.12;100.00;95174.41;5094486;28;20068;-75
2022/08/18 00:09:08;;;;;;;19.45;8.98;;;;;;;19.17;100.00;95182.97;5097860;28;20094;-75
2022/08/18 00:11:40;;;;;;;16.77;9.80;;;;;;;19.08;100.00;95179.63;5091798;28;20364;-75
2022/08/18 00:14:07;;;;;;;14.60;9.48;;;;;;;19.10;100.00;95169.41;5088056;28;21801;-75
2022/08/18 00:16:32;;;;;;;14.73;9.90;;;;;;;19.04;100.00;95162.72;5098179;28;20107;-75
2022/08/18 00:18:59;;;;;;;16.63;9.88;;;;;;;19.02;100.00;95162.28;5087399;28;20051;-75
2022/08/18 00:21:24;;;;;;;18.38;9.32;;;;;;;19.03;100.00;95169.94;5088979;28;20048;-75
2022/08/18 00:23:50;;;;;;;15.27;9.43;;;;;;;18.97;100.00;95170.50;5096433;28;20108;-74
2022/08/18 00:26:15;;;;;;;20.02;9.93;;;;;;;18.97;100.00;95170.50;5086632;28;20051;-75
2022/08/18 00:28:41;;;;;;;22.25;10.43;;;;;;;18.94;100.00;95176.50;5090209;28;20101;-75
2022/08/18 00:31:06;;;;;;;22.13;10.27;;;;;;;18.97;100.00;95175.84;5085189;28;20092;-75
2022/08/18 00:33:32;;;;;;;19.05;11.52;;;;;;;19.01;100.00;95184.72;5095519;28;20081;-75
2022/08/18 00:35:57;;;;;;;18.45;10.20;;;;;;;18.97;100.00;95186.50;5091921;28;20046;-74
2022/08/18 00:38:23;;;;;;;20.42;10.50;;;;;;;18.89;100.00;95190.03;5098105;28;20485;-75
2022/08/18 00:40:52;;;;;;;17.98;9.98;;;;;;;18.86;100.00;95178.94;5100783;28;20044;-74
2022/08/18 00:43:31;;;;;;;19.05;11.25;;;;;;;18.87;100.00;95177.81;5090567;28;20067;-75
2022/08/18 00:45:57;;;;;;;18.00;10.60;;;;;;;18.77;100.00;95167.53;5087363;28;20039;-75
2022/08/18 00:48:22;;;;;;;22.80;11.60;;;;;;;18.77;100.00;95161.44;5095175;28;20036;-74
2022/08/18 00:50:59;;;;;;;21.98;12.40;;;;;;;18.74;100.00;95162.88;5093980;28;20048;-74
2022/08/18 00:53:46;;;;;;;21.42;11.18;;;;;;;18.72;100.00;95159.78;5102107;28;20093;-75
2022/08/18 00:56:27;;;;;;;20.95;10.80;;;;;;;18.67;100.00;95149.31;5092844;28;20413;-75
2022/08/18 00:59:04;;;;;;;20.90;10.68;;;;;;;18.74;100.00;95160.19;5092644;28;20032;-75
2022/08/18 01:01:31;;;;;;;20.73;10.00;;;;;;;18.68;100.00;95180.19;5086879;28;20468;-74
2022/08/18 01:04:04;;;;;;;18.63;9.73;;;;;;;18.65;100.00;95186.19;5101833;28;20086;-76
2022/08/18 01:06:38;;;;;;;20.05;10.35;;;;;;;18.57;100.00;95193.13;5100024;28;20092;-75
2022/08/18 01:09:04;;;;;;;19.17;10.02;;;;;;;18.63;100.00;95204.38;5097733;28;20051;-76
2022/08/18 01:11:31;;;;;;;17.10;9.60;;;;;;;18.59;100.00;95208.78;5088507;28;20048;-76
2022/08/18 01:13:57;;;;;;;15.27;9.52;;;;;;;18.53;100.00;95198.34;5098420;28;20044;-75
2022/08/18 01:21:58;;;;;;;14.82;8.95;;;;;;;18.48;100.00;95195.09;5092930;28;20043;-75
2022/08/18 01:27:17;;;;;;;15.70;8.40;;;;;;;18.44;100.00;95202.97;5101027;28;20043;-76
2022/08/18 01:29:47;;;;;;;16.48;8.68;;;;;;;18.38;100.00;95193.63;5097096;28;20032;-75
2022/08/18 01:32:19;;;;;;;17.10;9.27;;;;;;;18.32;100.00;95185.06;5089625;28;20047;-76
2022/08/18 01:34:47;;;;;;;14.40;8.50;;;;;;;18.21;100.00;95183.13;5091760;28;20036;-76
2022/08/18 01:37:16;;;;;;;13.68;8.43;;;;;;;18.21;100.00;95188.44;5098957;28;20040;-75
2022/08/18 01:39:43;;;;;;;14.80;9.00;;;;;;;18.12;100.00;95186.63;5081475;28;20093;-75
2022/08/18 01:42:09;;;;;;;14.88;8.93;;;;;;;18.04;100.00;95179.47;5089983;28;20036;-75
2022/08/18 01:44:35;;;;;;;15.02;8.07;;;;;;;18.09;100.00;95178.53;5092151;28;20059;-75
2022/08/18 01:47:00;;;;;;;13.68;9.23;;;;;;;18.04;100.00;95168.81;5105790;28;20494;-75
2022/08/18 01:49:27;;;;;;;14.75;8.10;;;;;;;18.07;100.00;95168.16;5090090;28;20047;-75
2022/08/18 01:51:54;;;;;;;13.57;8.20;;;;;;;18.00;100.00;95178.56;5093125;28;20040;-75
2022/08/18 01:54:20;;;;;;;14.18;8.52;;;;;;;18.00;100.00;95167.91;5090841;28;20039;-75
2022/08/18 01:56:48;;;;;;;16.17;8.60;;;;;;;17.95;100.00;95170.78;5090331;28;20421;-75
2022/08/18 01:59:14;;;;;;;14.25;8.20;;;;;;;17.88;100.00;95165.16;5099310;28;20043;-75
2022/08/18 02:01:42;;;;;;;13.60;8.20;;;;;;;17.88;100.00;95168.59;5089894;28;20694;-75
2022/08/18 02:04:11;;;;;;;11.68;7.97;;;;;;;17.82;100.00;95162.69;5088316;28;20063;-75
2022/08/18 02:06:38;;;;;;;16.80;8.18;;;;;;;17.87;100.00;95171.59;5084622;28;20443;-75
2022/08/18 02:09:03;;;;;;;16.88;8.02;;;;;;;17.80;100.00;95164.91;5083050;28;20040;-75
2022/08/18 02:11:29;;;;;;;18.70;7.90;;;;;;;17.77;100.00;95164.75;5087484;28;20032;-76
2022/08/18 02:13:54;;;;;;;12.73;7.25;;;;;;;17.75;100.00;95167.75;5090914;28;20106;-76
2022/08/18 02:16:20;;;;;;;14.38;8.80;;;;;;;17.68;100.00;95162.16;5097774;28;20170;-75
2022/08/18 02:18:46;;;;;;;13.52;7.45;;;;;;;17.66;100.00;95153.72;5100622;28;20040;-75
2022/08/18 02:21:15;;;;;;;12.02;7.38;;;;;;;17.66;100.00;95151.06;5084233;28;20138;-76
2022/08/18 02:23:42;;;;;;;10.63;7.25;;;;;;;17.61;100.00;95161.88;5089100;28;20044;-76
2022/08/18 02:26:11;;;;;;;16.00;6.93;;;;;;;17.58;100.00;95173.19;5090642;28;20044;-75
2022/08/18 02:28:37;;;;;;;11.73;7.65;;;;;;;17.56;100.00;95164.75;5091615;28;20040;-76
2022/08/18 02:31:11;;;;;;;14.75;7.53;;;;;;;17.57;100.00;95160.97;5089145;28;20036;-75
2022/08/18 02:33:37;;;;;;;13.02;7.05;;;;;;;17.48;100.00;95153.84;5090935;28;20036;-75
2022/08/18 02:36:02;;;;;;;11.25;6.28;;;;;;;17.48;100.00;95159.16;5089648;28;20060;-75
2022/08/18 02:38:28;;;;;;;12.85;7.45;;;;;;;17.55;100.00;95163.94;5090949;28;20051;-75
2022/08/18 02:40:59;;;;;;;11.75;6.88;;;;;;;17.49;100.00;95158.03;5089561;28;20164;-75
2022/08/18 02:43:26;;;;;;;11.30;6.50;;;;;;;17.49;100.00;95160.69;5089163;28;20474;-75
2022/08/18 02:45:51;;;;;;;11.10;6.65;;;;;;;17.40;100.00;95159.22;5090848;28;20452;-75
2022/08/18 02:48:32;;;;;;;11.50;6.85;;;;;;;17.36;100.00;95145.75;5089852;28;20107;-75
2022/08/18 02:51:04;;;;;;;12.90;6.70;;;;;;;17.33;100.00;95135.78;5086620;28;20065;-75
2022/08/18 02:53:30;;;;;;;9.68;6.43;;;;;;;17.33;100.00;95135.78;5089379;28;20047;-75
2022/08/18 02:56:29;;;;;;;10.05;6.28;;;;;;;17.36;100.00;95127.16;5096606;28;20054;-75
2022/08/18 02:59:04;;;;;;;10.50;6.70;;;;;;;17.28;100.00;95128.75;5091218;28;20043;-75
2022/08/18 03:01:37;;;;;;;13.70;7.28;;;;;;;17.32;100.00;95147.50;5097050;28;20208;-75
2022/08/18 03:04:05;;;;;;;10.27;6.68;;;;;;;17.25;100.00;95140.00;5076094;28;20040;-75
2022/08/18 03:06:31;;;;;;;13.25;6.68;;;;;;;17.22;100.00;95147.88;5091836;28;20119;-75
2022/08/18 03:08:57;;;;;;;10.68;6.47;;;;;;;17.23;100.00;95136.13;5086598;28;20036;-75
2022/08/18 03:11:25;;;;;;;10.15;6.40;;;;;;;17.23;100.00;95141.47;5089730;28;20024;-75
2022/08/18 03:13:51;;;;;;;13.07;6.28;;;;;;;17.18;100.00;95141.63;5087712;28;20067;-75
2022/08/18 03:16:17;;;;;;;12.27;6.30;;;;;;;17.11;100.00;95129.63;5093842;28;20115;-75
2022/08/18 03:18:45;;;;;;;11.95;6.53;;;;;;;17.12;100.00;95141.81;5100309;28;20412;-75
2022/08/18 03:21:20;;;;;;;9.80;6.10;;;;;;;17.10;100.00;95141.34;5090477;28;20048;-75
2022/08/18 03:23:47;;;;;;;10.23;6.30;;;;;;;17.09;100.00;95126.50;5087942;28;20059;-75
2022/08/18 03:26:14;;;;;;;10.88;6.63;;;;;;;17.08;100.00;95124.94;5089099;28;20043;-76
2022/08/18 03:28:42;;;;;;;8.88;6.00;;;;;;;17.00;100.00;95123.09;5088707;28;20039;-76
2022/08/18 03:31:09;;;;;;;11.93;6.45;;;;;;;16.93;100.00;95117.50;5087098;28;20036;-76
2022/08/18 03:33:36;;;;;;;12.35;6.25;;;;;;;16.87;100.00;95132.81;5089827;28;20053;-76
2022/08/18 03:36:07;;;;;;;10.38;5.97;;;;;;;16.87;100.00;95129.38;5089035;28;20044;-76
2022/08/18 03:38:33;;;;;;;10.88;5.90;;;;;;;16.78;100.00;95124.88;5091798;28;20032;-76
2022/08/18 03:40:58;;;;;;;11.68;6.45;;;;;;;16.75;100.00;95133.50;5088659;28;20040;-75
2022/08/18 03:43:24;;;;;;;9.80;5.78;;;;;;;16.68;100.00;95127.88;5098935;28;20096;-75
2022/08/18 03:45:50;;;;;;;10.73;6.18;;;;;;;16.67;100.00;95131.63;5089159;28;20636;-75
2022/08/18 03:48:15;;;;;;;9.15;6.15;;;;;;;16.63;100.00;95125.38;5094947;28;20077;-74
2022/08/18 03:50:41;;;;;;;10.68;5.80;;;;;;;16.63;100.00;95125.38;5085971;28;20036;-75
2022/08/18 03:53:07;;;;;;;10.45;6.35;;;;;;;16.69;100.00;95129.41;5084732;28;20547;-75
2022/08/18 03:55:32;;;;;;;11.07;6.50;;;;;;;16.59;100.00;95129.78;5093560;28;20036;-75
2022/08/18 03:58:01;;;;;;;11.27;5.57;;;;;;;16.51;100.00;95122.63;5088726;28;20043;-75
2022/08/18 04:00:32;;;;;;;10.35;6.22;;;;;;;16.52;100.00;95116.19;5087439;28;20040;-75
2022/08/18 04:03:01;;;;;;;8.82;6.07;;;;;;;16.50;100.00;95115.75;5080873;28;20083;-75
2022/08/18 04:05:28;;;;;;;9.70;6.70;;;;;;;16.43;100.00;95122.31;5090687;28;20051;-75
2022/08/18 04:07:56;;;;;;;8.82;5.50;;;;;;;16.50;100.00;95123.72;5089113;28;20040;-75
2022/08/18 04:10:22;;;;;;;9.85;6.18;;;;;;;16.54;100.00;95122.00;5098443;28;20043;-75
2022/08/18 04:12:54;;;;;;;8.32;5.57;;;;;;;16.49;100.00;95116.84;5084336;28;20102;-75
2022/08/18 04:15:19;;;;;;;12.52;6.45;;;;;;;16.41;100.00;95119.19;5088092;28;20354;-75
2022/08/18 04:17:45;;;;;;;9.13;5.72;;;;;;;16.44;100.00;95113.25;5080634;28;20485;-75
2022/08/18 04:20:12;;;;;;;10.27;5.85;;;;;;;16.50;100.00;95099.81;5097994;28;20051;-74
2022/08/18 04:22:38;;;;;;;12.52;5.75;;;;;;;16.44;100.00;95099.97;5078192;28;20040;-75
2022/08/18 04:25:08;;;;;;;10.00;5.90;;;;;;;16.43;100.00;95094.97;5094914;28;20153;-75
2022/08/18 04:27:34;;;;;;;9.02;5.82;;;;;;;16.37;100.00;95091.72;5098073;28;20060;-75
2022/08/18 04:30:00;;;;;;;8.93;5.72;;;;;;;16.35;100.00;95087.81;5091507;28;20063;-76
2022/08/18 04:32:26;;;;;;;10.07;6.03;;;;;;;16.31;100.00;95097.53;5096236;28;20048;-76
2022/08/18 04:34:51;;;;;;;11.35;6.38;;;;;;;16.24;100.00;95082.06;5095731;28;20032;-75
2022/08/18 04:37:17;;;;;;;9.15;6.15;;;;;;;16.16;100.00;95082.84;5099235;28;20046;-76
2022/08/18 04:39:44;;;;;;;8.75;5.93;;;;;;;16.17;100.00;95087.06;5090353;28;20040;-76
2022/08/18 04:42:10;;;;;;;9.68;6.53;;;;;;;16.17;100.00;95087.84;5091061;28;20058;-76
2022/08/18 04:44:36;;;;;;;9.00;5.78;;;;;;;16.22;100.00;95089.53;5102288;28;20047;-75
2022/08/18 04:47:03;;;;;;;9.48;6.13;;;;;;;16.24;100.00;95095.34;5091526;28;20404;-75
2022/08/18 04:49:30;;;;;;;9.82;6.28;;;;;;;16.27;100.00;95098.13;5099784;28;20082;-75
2022/08/18 04:54:41;;;;;;;8.05;5.60;;;;;;;16.33;100.00;95093.44;5092718;28;20509;-75
2022/08/18 04:57:15;;;;;;;8.05;5.78;;;;;;;16.31;100.00;95108.91;5098272;28;20069;-75
2022/08/18 04:59:44;;;;;;;9.32;6.75;;;;;;;16.27;100.00;95118.59;5093228;28;20039;-75
2022/08/18 05:02:10;;;;;;;9.70;5.95;;;;;;;16.37;100.00;95117.50;5097014;28;20089;-75
2022/08/18 05:04:39;;;;;;;8.65;6.18;;;;;;;16.42;100.00;95120.75;5098600;28;20517;-76
2022/08/18 05:07:10;;;;;;;10.82;6.13;;;;;;;16.42;100.00;95120.75;5092174;28;20101;-75
2022/08/18 05:09:37;;;;;;;16.52;6.53;;;;;;;16.49;100.00;95119.50;5085430;28;20097;-75
2022/08/18 05:12:05;;;;;;;13.43;6.10;;;;;;;16.63;100.00;95131.47;5090409;28;20044;-76
2022/08/18 05:14:31;;;;;;;9.23;5.53;;;;;;;16.63;100.00;95134.13;5092615;28;20067;-75
2022/08/18 05:16:58;;;;;;;11.52;6.15;;;;;;;16.73;100.00;95135.66;5096658;28;20611;-75
2022/08/18 05:19:25;;;;;;;10.50;6.15;;;;;;;16.85;100.00;95134.22;5091205;28;20047;-75
2022/08/18 05:21:52;;;;;;;8.88;5.82;;;;;;;17.00;100.00;95139.06;5085921;28;20040;-74
2022/08/18 05:24:20;;;;;;;12.98;6.35;;;;;;;17.09;100.00;95150.41;5092093;28;20040;-75
2022/08/18 05:26:47;;;;;;;9.77;5.70;;;;;;;17.14;100.00;95144.94;5091489;28;20166;-79
2022/08/18 05:29:13;;;;;;;9.18;5.90;;;;;;;17.33;100.00;95157.03;5087750;28;20085;-75
2022/08/18 05:31:39;;;;;;;11.70;6.28;;;;;;;17.46;100.00;95156.03;5087863;28;20468;-77
2022/08/18 05:34:04;;;;;;;10.93;6.55;;;;;;;17.55;100.00;95157.88;5099795;28;22143;-76
2022/08/18 05:36:56;;;;;;;10.10;6.72;;;;;;;17.70;100.00;95154.66;5103999;28;20089;-76
2022/08/18 05:39:34;;;;;;;8.93;6.00;;;;;;;17.79;100.00;95144.72;5087757;28;20040;-76
2022/08/18 05:42:21;;;;;;;24.30;6.30;;;;;;;17.98;100.00;95143.50;5088852;28;20052;-76
2022/08/18 05:44:49;;;;;;;9.38;5.40;;;;;;;18.07;100.00;95152.19;5092197;28;20047;-76
2022/08/18 05:47:22;;;;;;;8.05;5.53;;;;;;;18.01;100.00;95150.84;5090751;28;20064;-77
2022/08/18 05:49:49;;;;;;;10.68;5.90;;;;;;;18.14;100.00;95162.31;5089470;28;20387;-78
2022/08/18 05:52:39;;;;;;;12.18;5.78;;;;;;;18.26;100.00;95172.25;5092123;28;20693;-79
2022/08/18 05:58:30;;;;;;;8.63;5.03;;;;;;;18.49;100.00;95178.78;5100958;28;20125;-77
2022/08/18 06:01:17;;;;;;;7.95;5.32;;;;;;;18.51;100.00;95163.25;5080370;28;20059;-77
2022/08/18 06:03:51;;;;;;;9.23;5.65;;;;;;;18.60;100.00;95167.72;5084921;28;20052;-77
2022/08/18 06:06:24;;;;;;;7.00;4.78;;;;;;;18.59;100.00;95163.50;5087019;28;20078;-78
2022/08/18 06:09:14;;;;;;;11.60;5.60;;;;;;;18.57;100.00;95168.38;5094976;28;20484;-78
2022/08/18 06:11:40;;;;;;;8.43;5.35;;;;;;;18.65;100.00;95157.63;5087310;28;20052;-77
2022/08/18 06:14:05;;;;;;;9.90;5.45;;;;;;;18.58;100.00;95167.28;5099941;28;20048;-76
2022/08/18 06:16:46;;;;;;;8.95;5.88;;;;;;;18.64;100.00;95173.94;5102092;28;20040;-77
2022/08/18 06:19:34;;;;;;;10.65;5.53;;;;;;;18.79;100.00;95173.34;5096561;28;20096;-77
2022/08/18 06:22:18;;;;;;;9.93;5.57;;;;;;;18.95;100.00;95176.16;5099042;28;20043;-76
2022/08/18 06:25:07;;;;;;;11.95;6.05;;;;;;;18.82;100.00;95170.00;5097422;28;20089;-77
2022/08/18 06:27:39;;;;;;;9.57;5.93;;;;;;;18.92;100.00;95174.16;5089813;28;20062;-76
2022/08/18 06:30:21;;;;;;;8.43;5.53;;;;;;;18.92;100.00;95173.38;5090110;28;20600;-76
2022/08/18 06:33:05;;;;;;;10.82;6.03;;;;;;;18.98;100.00;95177.41;5090976;28;20032;-75
2022/08/18 06:35:36;;;;;;;9.10;5.90;;;;;;;18.99;100.00;95168.28;5091553;28;20505;-76
2022/08/18 06:40:47;;;;;;;9.23;5.63;;;;;;;19.10;100.00;95157.97;5094251;28;20406;-76
2022/08/18 06:43:15;;;;;;;10.40;5.72;;;;;;;19.19;100.00;95146.09;5089072;28;20036;-75
2022/08/18 06:45:44;;;;;;;9.73;5.93;;;;;;;19.36;100.00;95154.97;5087291;28;20071;-76
2022/08/18 06:48:25;;;;;;;11.27;6.07;;;;;;;19.33;100.00;95155.63;5095836;28;20044;-78
2022/08/18 06:50:54;;;;;;;10.27;6.13;;;;;;;19.24;100.00;95158.41;5092221;28;20040;-78
2022/08/18 06:53:21;;;;;;;9.45;5.75;;;;;;;19.37;100.00;95145.84;5092819;28;20583;-78
2022/08/18 06:55:49;;;;;;;9.27;5.97;;;;;;;19.42;100.00;95142.94;5096464;28;20044;-76
2022/08/18 06:58:14;;;;;;;9.52;6.55;;;;;;;19.38;100.00;95132.19;5093852;28;20056;-78
2022/08/18 07:00:49;;;;;;;10.57;6.25;;;;;;;19.31;100.00;95125.81;5083510;28;20040;-77
2022/08/18 07:03:16;;;;;;;8.82;6.20;;;;;;;19.45;100.00;95123.63;5095464;28;20040;-77
2022/08/18 07:06:10;;;;;;;13.52;6.55;;;;;;;19.47;100.00;95124.03;5095175;28;20487;-76
2022/08/18 07:08:41;;;;;;;9.85;6.15;;;;;;;19.64;100.00;95133.69;5083731;28;20064;-76
2022/08/18 07:11:16;;;;;;;8.63;5.53;;;;;;;19.68;100.00;95136.47;5090092;28;20408;-76
2022/08/18 07:13:44;;;;;;;11.93;6.00;;;;;;;19.80;100.00;95136.47;5089669;28;20072;-76
2022/08/18 07:16:15;;;;;;;13.57;6.10;;;;;;;19.80;100.00;95139.16;5107736;28;20032;-76
2022/08/18 07:18:42;;;;;;;9.20;6.15;;;;;;;19.74;100.00;95127.13;5090594;28;20093;-76
2022/08/18 07:21:08;;;;;;;13.00;6.43;;;;;;;19.83;100.00;95130.47;5094176;28;20138;-76
2022/08/18 07:23:38;;;;;;;14.27;6.00;;;;;;;19.81;100.00;95122.03;5089852;28;20040;-76
2022/08/18 07:26:12;;;;;;;8.85;6.00;;;;;;;19.70;100.00;95128.91;5091464;28;20781;-76
2022/08/18 07:28:44;;;;;;;10.60;6.47;;;;;;;19.76;100.00;95138.22;5081304;28;20051;-76
2022/08/18 07:31:34;;;;;;;10.00;6.03;;;;;;;19.67;100.00;95143.72;5090394;28;20071;-76
2022/08/18 07:34:07;;;;;;;9.35;6.03;;;;;;;19.81;100.00;95135.38;5089959;28;20109;-76
2022/08/18 07:36:42;;;;;;;9.55;6.10;;;;;;;19.79;100.00;95126.91;5096026;28;20451;-76
2022/08/18 07:39:17;;;;;;;10.98;6.40;;;;;;;19.89;100.00;95123.75;5096294;28;20088;-77
2022/08/18 07:41:57;;;;;;;10.20;6.00;;;;;;;20.05;100.00;95136.41;5093951;28;20044;-76
2022/08/18 07:44:42;;;;;;;9.43;6.60;;;;;;;20.22;100.00;95130.78;5091409;28;20110;-77
2022/08/18 07:47:48;;;;;;;10.65;6.53;;;;;;;20.06;100.00;95121.94;5089758;28;20481;-76
2022/08/18 07:50:14;;;;;;;10.65;6.72;;;;;;;20.29;100.00;95121.41;5079929;28;20512;-76
2022/08/18 07:52:44;;;;;;;11.85;6.10;;;;;;;20.35;100.00;95122.72;5091759;28;20036;-76
2022/08/18 07:55:25;;;;;;;14.35;6.65;;;;;;;20.32;100.00;95128.75;5090481;28;20036;-76
2022/08/18 07:58:09;;;;;;;9.60;6.60;;;;;;;20.39;100.00;95129.69;5093427;28;20054;-76
2022/08/18 08:00:46;;;;;;;15.02;7.13;;;;;;;20.30;100.00;95130.97;5090140;28;20066;-83
2022/08/18 08:03:38;;;;;;;10.30;6.72;;;;;;;20.36;100.00;95134.97;5089731;28;20036;-83
2022/08/18 08:06:25;;;;;;;14.02;7.00;;;;;;;20.54;100.00;95130.06;5092242;28;20036;-76
2022/08/18 08:08:57;;;;;;;11.23;6.82;;;;;;;20.48;100.00;95131.44;5078352;28;20429;-77
2022/08/18 08:11:43;;;;;;;9.27;7.00;;;;;;;20.68;100.00;95129.69;5087114;28;20410;-76
2022/08/18 08:14:24;;;;;;;14.70;6.72;;;;;;;20.76;99.99;95134.13;5092163;28;20047;-77
2022/08/18 08:16:52;;;;;;;12.93;7.78;;;;;;;20.71;100.00;95134.34;5092187;28;20044;-76
2022/08/18 08:19:32;;;;;;;13.35;7.05;;;;;;;20.86;99.05;95125.59;5094042;28;20041;-77
2022/08/18 08:22:11;;;;;;;11.05;6.53;;;;;;;21.05;99.45;95124.13;5086317;28;20680;-76
2022/08/18 08:25:21;;;;;;;10.43;7.03;;;;;;;21.16;99.08;95133.19;5092167;28;20047;-74
2022/08/18 08:27:59;;;;;;;13.82;7.70;;;;;;;21.13;96.67;95133.84;5075657;28;20055;-73
2022/08/18 08:30:30;;;;;;;13.20;7.28;;;;;;;21.38;94.72;95125.63;5079840;28;20040;-70
2022/08/18 08:33:28;;;;;;;11.80;7.20;;;;;;;21.31;97.97;95120.13;5097999;28;20052;-72
2022/08/18 08:36:04;;;;;;;13.35;7.03;;;;;;;21.54;96.09;95120.28;5112535;28;20020;-74
2022/08/18 08:38:48;;;;;;;13.57;7.22;;;;;;;21.65;94.83;95105.22;5093167;28;20781;-75
2022/08/18 08:41:34;;;;;;;12.38;8.18;;;;;;;21.31;94.62;95101.38;5097636;28;20030;-71
2022/08/18 08:44:24;;;;;;;14.35;6.90;;;;;;;21.53;95.07;95103.41;5100502;28;20048;-75
2022/08/18 08:47:49;;;;;;;12.00;7.00;;;;;;;21.57;94.76;95090.88;5096155;28;20113;-75
2022/08/18 08:50:27;;;;;;;11.27;7.13;;;;;;;21.53;96.04;95098.06;5085296;28;20044;-75
2022/08/18 08:53:06;;;;;;;16.55;7.65;;;;;;;21.61;95.00;95110.50;5115962;22;20028;-78
2022/08/18 08:55:44;;;;;;;14.90;8.73;;;;;;;21.60;93.86;95092.88;5502889;22;20044;-75
2022/08/18 08:58:20;;;;;;;14.73;8.02;;;;;;;21.61;92.50;95086.38;5081136;28;20101;-75
2022/08/18 09:00:59;;;;;;;14.60;8.70;;;;;;;21.28;95.24;95071.50;5083629;28;20051;-76
2022/08/18 09:03:52;;;;;;;15.32;8.32;;;;;;;21.62;95.30;95074.56;5251208;22;20040;-76
2022/08/18 09:06:42;;;;;;;11.88;8.07;;;;;;;21.86;91.72;95078.09;5069609;28;20029;-72
2022/08/18 09:09:25;;;;;;;13.70;9.07;;;;;;;22.02;88.85;95061.16;5065040;28;20055;-72
2022/08/18 09:11:52;;;;;;;13.10;8.13;;;;;;;22.06;88.61;95064.69;5093408;22;20023;-72
2022/08/18 09:14:34;;;;;;;14.25;8.30;;;;;;;22.04;89.21;95073.09;5118025;28;20077;-74
2022/08/18 09:17:22;;;;;;;14.18;7.65;;;;;;;21.76;89.68;95078.66;5479332;22;20468;-70
2022/08/18 09:19:51;;;;;;;16.30;8.95;;;;;;;21.90;87.61;95089.66;5067974;28;20036;-76
2022/08/18 09:22:54;;;;;;;14.25;8.90;;;;;;;22.05;87.24;95095.28;5075481;28;20097;-76
2022/08/18 09:25:38;;;;;;;15.90;8.00;;;;;;;22.38;85.57;95102.06;5071168;28;20041;-76
2022/08/18 09:28:28;;;;;;;14.32;8.00;;;;;;;22.34;82.95;95101.22;5075211;28;20067;-75
2022/08/18 09:31:04;;;;;;;11.73;8.13;;;;;;;22.30;83.22;95091.19;5068657;28;20040;-76
2022/08/18 09:33:44;;;;;;;11.43;7.50;;;;;;;22.30;81.40;95080.47;5082997;28;20079;-75
2022/08/18 09:36:35;;;;;;;12.55;7.93;;;;;;;22.19;79.06;95060.72;5088625;28;20051;-76
2022/08/18 09:42:27;;;;;;;10.32;7.80;;;;;;;22.39;79.75;95060.72;5044348;28;20087;-77
2022/08/18 09:44:53;;;;;;;11.95;8.30;;;;;;;22.51;78.26;95067.81;5073244;28;20532;-78
2022/08/18 09:47:19;;;;;;;13.88;8.55;;;;;;;22.52;77.21;95075.50;5058494;28;20041;-77
2022/08/18 09:49:47;;;;;;;14.10;9.63;;;;;;;22.40;77.09;95064.97;5061462;28;20041;-76
2022/08/18 09:52:22;;;;;;;13.30;8.73;;;;;;;22.64;77.88;95067.31;5071306;28;20044;-76
2022/08/18 09:54:58;;;;;;;13.68;8.45;;;;;;;22.98;76.16;95064.75;5069783;28;20041;-76
2022/08/18 09:57:26;;;;;;;13.07;7.93;;;;;;;23.25;75.57;95072.84;5070590;28;20067;-77
2022/08/18 09:59:56;;;;;;;15.82;9.20;;;;;;;23.34;73.17;95075.28;5068767;28;20043;-76
2022/08/18 10:02:27;;;;;;;12.02;8.00;;;;;;;23.59;73.21;95075.63;5065940;28;20039;-77
2022/08/18 10:05:26;;;;;;;13.70;9.00;;;;;;;23.63;72.52;95060.34;5066313;28;20037;-77
2022/08/18 10:08:07;;;;;;;15.10;7.90;;;;;;;23.75;72.56;95066.59;5048736;28;20414;-75
2022/08/18 10:10:44;;;;;;;14.95;8.68;;;;;;;24.08;69.70;95073.94;5052116;28;20043;-75
2022/08/18 10:13:32;;;;;;;15.05;9.20;;;;;;;23.75;68.52;95071.97;5068315;28;20033;-82
2022/08/18 10:16:09;;;;;;;13.95;8.48;;;;;;;24.21;68.08;95077.16;5062710;28;20040;-76
2022/08/18 10:18:54;;;;;;;13.75;8.25;;;;;;;24.51;67.53;95084.34;5069445;28;20045;-76
2022/08/18 10:21:29;;;;;;;13.27;9.32;;;;;;;24.28;66.90;95087.97;5065363;28;20047;-75
2022/08/18 10:23:59;;;;;;;13.93;8.45;;;;;;;24.25;66.00;95083.34;5069385;28;20048;-75
2022/08/18 10:26:30;;;;;;;13.60;8.68;;;;;;;24.26;67.71;95090.25;5067047;28;20036;-75
2022/08/18 10:29:00;;;;;;;12.30;9.10;;;;;;;24.76;67.77;95094.63;5070875;28;20402;-76
2022/08/18 10:31:27;;;;;;;12.25;8.77;;;;;;;25.63;66.00;95091.41;5063677;28;20055;-77
2022/08/18 10:33:59;;;;;;;15.30;10.30;;;;;;;25.66;65.00;95090.66;5070263;28;20036;-76
2022/08/18 10:36:36;;;;;;;16.70;10.02;;;;;;;25.74;62.86;95089.53;5083260;28;20086;-76
2022/08/18 10:39:09;;;;;;;14.45;9.00;;;;;;;25.53;62.84;95084.03;5069369;28;20046;-76
2022/08/18 10:41:37;;;;;;;17.58;10.68;;;;;;;25.77;61.58;95072.63;5081727;28;20082;-76
2022/08/18 10:44:05;;;;;;;15.65;9.65;;;;;;;26.16;61.79;95063.16;5078265;28;20044;-76
2022/08/18 10:46:40;;;;;;;15.32;9.95;;;;;;;26.50;60.36;95064.78;5042207;28;20140;-76
2022/08/18 10:49:11;;;;;;;19.00;10.15;;;;;;;26.51;59.15;95052.84;5083860;28;20571;-76
2022/08/18 10:51:49;;;;;;;13.40;9.48;;;;;;;27.61;56.52;95058.56;5060058;28;20052;-75
2022/08/18 10:54:30;;;;;;;14.93;9.90;;;;;;;26.96;56.32;95047.84;5077904;28;20055;-77
2022/08/18 10:57:15;;;;;;;14.27;9.32;;;;;;;28.07;54.76;95041.41;5077346;28;20079;-78
2022/08/18 10:59:50;;;;;;;13.55;8.75;;;;;;;28.06;52.46;95039.88;5077887;28;20041;-77
2022/08/18 11:02:45;;;;;;;13.68;9.50;;;;;;;28.67;52.14;95044.16;5089797;28;20123;-76
2022/08/18 11:05:16;;;;;;;14.45;11.10;;;;;;;28.00;53.74;95036.03;5071457;28;20047;-76
2022/08/18 11:07:47;;;;;;;15.93;10.57;;;;;;;27.28;54.19;95030.81;5074465;28;20064;-76
2022/08/18 11:10:38;;;;;;;19.85;10.05;;;;;;;27.54;54.46;95036.97;5072894;28;20102;-77
2022/08/18 11:13:09;;;;;;;17.08;10.70;;;;;;;26.56;56.19;95036.25;5079518;28;20044;-75
2022/08/18 11:15:35;;;;;;;13.80;10.40;;;;;;;26.04;58.69;95028.47;5064538;28;20068;-75
2022/08/18 11:18:06;;;;;;;15.20;10.18;;;;;;;25.63;60.22;95015.97;5064031;28;20048;-75
2022/08/18 11:20:32;;;;;;;21.58;12.10;;;;;;;25.57;61.39;95020.16;5064307;28;20053;-75
2022/08/18 11:23:01;;;;;;;19.60;11.48;;;;;;;26.03;59.62;95016.91;5064059;28;20036;-76
2022/08/18 11:25:34;;;;;;;17.80;10.95;;;;;;;26.55;58.26;95003.09;5063770;28;20067;-78
2022/08/18 11:28:00;;;;;;;13.38;10.32;;;;;;;26.87;56.97;94996.19;5075749;28;20158;-77
2022/08/18 11:30:32;;;;;;;17.65;11.10;;;;;;;26.38;57.75;95004.63;5061827;28;20384;-75
2022/08/18 11:32:59;;;;;;;19.25;11.63;;;;;;;26.10;59.06;94989.19;5061499;28;20530;-76
2022/08/18 11:35:30;;;;;;;17.23;11.95;;;;;;;26.48;57.07;94983.44;5053465;28;20045;-76
2022/08/18 11:37:59;;;;;;;16.58;11.68;;;;;;;27.35;55.20;94976.81;5058244;28;20528;-76
2022/08/18 11:40:24;;;;;;;20.08;12.48;;;;;;;27.32;55.20;94982.97;5057517;28;20080;-76
2022/08/18 11:42:58;;;;;;;21.33;12.70;;;;;;;27.87;55.15;94980.84;5065169;28;20037;-75
2022/08/18 11:45:31;;;;;;;20.73;12.05;;;;;;;27.95;53.23;94975.00;5062423;28;20071;-75
2022/08/18 11:48:27;;;;;;;18.58;11.70;;;;;;;27.25;55.85;94969.47;5067160;28;20040;-76
2022/08/18 11:50:55;;;;;;;19.25;11.48;;;;;;;27.19;56.10;94957.53;5060180;28;20086;-76
2022/08/18 11:53:35;;;;;;;19.30;12.80;;;;;;;27.22;55.95;94946.72;5066331;28;20056;-76
2022/08/18 11:56:10;;;;;;;19.77;12.52;;;;;;;27.25;55.61;94934.38;5060416;28;20051;-77
2022/08/18 11:58:47;;;;;;;23.45;13.05;;;;;;;26.85;57.01;94914.81;5066991;28;20051;-76
2022/08/18 12:01:37;;;;;;;21.23;12.40;;;;;;;26.69;57.19;94913.28;5063834;28;20490;-76
2022/08/18 12:04:12;;;;;;;20.10;13.15;;;;;;;26.90;56.08;94898.97;5061954;28;20044;-76
2022/08/18 12:06:44;;;;;;;19.13;12.98;;;;;;;27.13;55.80;94901.22;5063701;28;20514;-76